CYXL

Sioux Lookout Airport

Sioux Lookout, Ontario, Canada
METAR CYXL 260400Z 05003KT 040V150 15SM FEW060CB SCT100 BKN250 15/15 A2961 RMK CB2AC1CI2 LTNG DIST SW-W SLP028 DENSITY ALT 2000FT
Observed Flight Rules
May-26 @ 04:00 UTC (24 minutes ago) Visual Flight Rules
Wind Visibility Clouds
50° at 3 knots 15 miles
  • Few at 6,000' AGL
  • Scattered at 10,000' AGL
  • Broken at 25,000' AGL
Temperatures Readings
Current 15°C / 59°F
Dewpoint 15°C / 59°F
Humidity 100%
Altimeter 29.61" Hg
Pressure 1002.8 hPa
Elevation 390
METAR CYXL 260400Z 05003KT 040V150 15SM FEW060CB SCT100 BKN250 15/15 A2961 RMK CB2AC1CI2 LTNG DIST SW-W SLP028 DENSITY ALT 2000FT
Observed Flight Rules
May-26 @ 04:00 UTC
(24 minutes ago)
VFR
Wind Visibility
50° at 3 knots 15 miles
Clouds
  • Few at 6,000' AGL
  • Scattered at 10,000' AGL
  • Broken at 25,000' AGL
Temperature Dewpoint
15°C / 59°F 15°C / 59°F
Humidity Altimeter Pressure
100% 29.61" Hg 1002.8 hPa